Time;durP1;ratioP1;P1;durP2;ratioP2;P2;SDS_P1;SDS_P2;PMS_P1;PMS_P2;Temp;Humidity;BMP_temperature;BMP_pressure;BME280_temperature;BME280_humidity;BME280_pressure;Samples;Min_cycle;Max_cycle;Signal;HPM_P1;HPM_P2
2023/03/25 00:01:18;;;;;;;;;29.67;28.00;;;;;11.87;98.17;99351.84;5103099;27;45529;-79
2023/03/25 00:03:49;;;;;;;;;29.00;24.00;;;;;11.80;97.63;99354.81;5097058;27;45526;-80
2023/03/25 00:06:15;;;;;;;;;19.75;16.75;;;;;11.71;96.34;99350.75;5090837;27;46627;-79
2023/03/25 00:08:41;;;;;;;;;21.75;20.75;;;;;11.63;96.18;99347.53;5097376;27;45503;-79
2023/03/25 00:11:07;;;;;;;;;29.33;27.00;;;;;11.57;96.96;99339.84;5102618;27;45543;-79
2023/03/25 00:13:33;;;;;;;;;24.75;22.50;;;;;11.53;97.31;99354.97;5092751;27;45525;-79
2023/03/25 00:15:59;;;;;;;;;35.67;32.00;;;;;11.49;98.96;99358.66;5112911;27;47975;-79
2023/03/25 00:18:33;;;;;;;;;31.67;29.33;;;;;11.48;98.73;99358.72;5097759;27;45351;-79
2023/03/25 00:21:01;;;;;;;;;35.33;32.67;;;;;11.48;100.00;99358.72;5117361;27;45444;-79
2023/03/25 00:23:28;;;;;;;;;40.67;35.00;;;;;11.47;99.85;99365.78;5097833;27;45533;-79
2023/03/25 00:25:59;;;;;;;;;43.67;33.67;;;;;11.47;99.54;99363.13;5097126;27;45351;-78
2023/03/25 00:28:27;;;;;;;;;33.00;31.00;;;;;11.49;99.69;99357.81;5095681;27;45516;-79
2023/03/25 00:30:53;;;;;;;;;36.67;33.67;;;;;11.47;99.52;99367.56;5095431;27;45388;-79
2023/03/25 00:33:21;;;;;;;;;24.33;23.00;;;;;11.43;98.75;99366.81;5097486;27;46348;-79
2023/03/25 00:35:51;;;;;;;;;27.00;23.33;;;;;11.44;98.62;99365.03;5092127;27;47220;-79
2023/03/25 00:38:17;;;;;;;;;26.67;22.67;;;;;11.43;98.16;99365.94;5087953;27;45378;-79
2023/03/25 00:40:42;;;;;;;;;26.00;22.50;;;;;11.44;97.65;99367.66;5097656;27;45311;-79
2023/03/25 00:43:10;;;;;;;;;26.00;24.33;;;;;11.46;97.72;99366.69;5097377;27;45481;-79
2023/03/25 00:45:35;;;;;;;;;26.67;24.33;;;;;11.48;97.47;99377.19;5096161;27;47824;-78
2023/03/25 00:48:00;;;;;;;;;30.67;23.00;;;;;11.49;97.28;99371.00;5097205;27;45604;-79
2023/03/25 00:50:26;;;;;;;;;24.00;22.67;;;;;11.51;96.50;99370.03;5096918;27;45443;-79
2023/03/25 00:52:55;;;;;;;;;27.33;23.00;;;;;11.53;97.00;99368.19;5095894;27;45589;-79
2023/03/25 00:55:20;;;;;;;;;23.33;20.67;;;;;11.53;96.96;99367.31;5095865;27;46349;-79
2023/03/25 00:57:46;;;;;;;;;25.33;24.00;;;;;11.53;97.46;99369.97;5097466;27;45362;-79
2023/03/25 01:00:15;;;;;;;;;27.00;24.00;;;;;11.52;97.31;99376.16;5097033;27;45616;-79
2023/03/25 01:02:41;;;;;;;;;28.67;26.33;;;;;11.50;96.60;99375.34;5097375;27;45697;-79
2023/03/25 01:05:09;;;;;;;;;24.25;21.00;;;;;11.49;96.07;99369.22;5096787;27;47849;-78
2023/03/25 01:07:35;;;;;;;;;22.67;22.67;;;;;11.49;95.54;99368.34;5094308;27;45497;-79
2023/03/25 01:10:01;;;;;;;;;20.00;19.00;;;;;11.50;94.62;99372.72;5096800;27;45446;-79
2023/03/25 01:12:27;;;;;;;;;23.00;20.50;;;;;11.53;95.08;99384.03;5095802;27;45448;-79
2023/03/25 01:14:53;;;;;;;;;27.00;25.00;;;;;11.54;95.05;99379.59;5096699;27;45389;-79
2023/03/25 01:17:19;;;;;;;;;20.50;20.25;;;;;11.53;94.89;99383.16;5097305;27;45473;-79
2023/03/25 01:19:44;;;;;;;;;25.67;21.67;;;;;11.49;95.04;99376.28;5096984;27;45469;-79
2023/03/25 01:22:10;;;;;;;;;25.00;21.00;;;;;11.45;94.85;99377.31;5097113;27;45466;-80
2023/03/25 01:24:35;;;;;;;;;28.00;25.67;;;;;11.42;95.41;99375.66;5097231;27;45607;-80
2023/03/25 01:27:01;;;;;;;;;26.33;26.33;;;;;11.41;95.34;99375.72;5097434;27;45468;-80
2023/03/25 01:29:27;;;;;;;;;33.67;31.33;;;;;11.37;95.23;99380.28;5096614;27;45738;-80
2023/03/25 01:31:52;;;;;;;;;31.67;28.67;;;;;11.36;95.48;99378.56;5097172;27;45323;-80
2023/03/25 01:34:18;;;;;;;;;31.67;29.00;;;;;11.35;96.12;99384.75;5096908;27;46114;-80
2023/03/25 01:36:45;;;;;;;;;34.33;31.33;;;;;11.35;96.62;99390.03;5097267;27;45406;-80
2023/03/25 01:39:15;;;;;;;;;38.00;31.00;;;;;11.30;97.31;99386.69;5096850;27;45439;-79
2023/03/25 01:41:42;;;;;;;;;22.67;19.67;;;;;11.29;96.73;99389.38;5094052;27;45407;-79
2023/03/25 01:44:29;;;;;;;;;27.33;23.00;;;;;11.25;96.06;99387.78;5095152;27;45370;-79
2023/03/25 01:46:57;;;;;;;;;25.50;20.50;;;;;11.19;95.73;99392.41;5112284;27;45456;-79
2023/03/25 01:49:45;;;;;;;;;27.67;25.33;;;;;11.14;95.32;99402.25;5096873;27;45390;-79
2023/03/25 01:52:15;;;;;;;;;23.33;20.67;;;;;11.11;95.70;99393.59;5096323;27;45456;-79
2023/03/25 01:54:43;;;;;;;;;19.67;19.00;;;;;11.10;95.07;99389.22;5096431;27;46586;-79
2023/03/25 01:57:10;;;;;;;;;16.00;16.00;;;;;11.08;94.00;99384.00;5096167;27;45478;-79
2023/03/25 01:59:38;;;;;;;;;18.75;16.25;;;;;11.09;92.83;99387.50;5095631;27;45376;-79
2023/03/25 02:02:07;;;;;;;;;18.50;15.00;;;;;11.07;92.20;99386.69;5122166;27;45782;-79
2023/03/25 02:04:50;;;;;;;;;14.00;12.50;;;;;11.04;92.33;99387.72;5088558;27;46761;-79
2023/03/25 02:07:17;;;;;;;;;16.00;15.25;;;;;11.02;92.61;99396.59;5096630;27;45422;-79
2023/03/25 02:09:43;;;;;;;;;14.50;13.50;;;;;10.98;92.33;99398.47;5096539;27;45394;-79
2023/03/25 02:12:08;;;;;;;;;14.50;10.25;;;;;10.99;91.16;99396.69;5096462;27;45549;-79
2023/03/25 02:14:36;;;;;;;;;8.75;8.00;;;;;10.98;89.76;99403.75;5091444;27;47111;-79
2023/03/25 02:17:21;;;;;;;;;9.50;9.00;;;;;10.97;89.98;99398.53;5085003;27;45481;-79
2023/03/25 02:19:46;;;;;;;;;9.75;9.50;;;;;10.98;89.68;99397.63;5096044;27;45510;-79
2023/03/25 02:22:40;;;;;;;;;5.25;5.25;;;;;11.01;87.89;99392.22;5095937;27;45477;-79
2023/03/25 02:25:39;;;;;;;;;8.00;8.00;;;;;11.00;88.65;99401.06;5086174;27;46456;-79
2023/03/25 02:28:13;;;;;;;;;13.25;12.75;;;;;11.03;89.35;99395.69;5083694;27;45410;-78
2023/03/25 02:31:09;;;;;;;;;18.00;16.67;;;;;11.05;90.23;99397.34;5094797;27;45336;-79
2023/03/25 02:33:50;;;;;;;;;16.75;15.00;;;;;11.05;89.84;99389.44;5095819;27;45392;-79
2023/03/25 02:36:29;;;;;;;;;14.25;14.25;;;;;11.05;90.48;99384.16;5095453;27;46100;-78
2023/03/25 02:39:00;;;;;;;;;23.33;19.00;;;;;11.08;91.00;99377.88;5093985;27;45986;-78
2023/03/25 02:41:39;;;;;;;;;18.67;17.33;;;;;11.08;91.08;99373.47;5111713;27;45391;-78
2023/03/25 02:44:27;;;;;;;;;17.00;15.50;;;;;11.12;90.14;99364.50;5082521;27;45430;-78
2023/03/25 02:46:56;;;;;;;;;16.50;15.25;;;;;11.17;89.69;99375.75;5095771;27;45365;-79
2023/03/25 02:49:31;;;;;;;;;17.75;14.00;;;;;11.21;89.58;99373.00;5095848;27;45531;-79
2023/03/25 02:52:08;;;;;;;;;12.25;12.25;;;;;11.24;88.55;99379.00;5095342;27;45389;-78
2023/03/25 02:54:35;;;;;;;;;17.25;16.75;;;;;11.28;89.14;99377.97;5095463;27;45390;-79
2023/03/25 02:57:02;;;;;;;;;17.00;15.75;;;;;11.31;89.96;99379.63;5095254;27;45717;-79
2023/03/25 02:59:32;;;;;;;;;17.25;14.25;;;;;11.32;89.73;99387.50;5094604;27;45395;-78
2023/03/25 03:01:59;;;;;;;;;25.33;22.33;;;;;11.33;90.47;99386.59;5094998;27;45579;-79
2023/03/25 03:04:26;;;;;;;;;25.33;22.67;;;;;11.35;91.43;99389.16;5095111;27;45292;-78
2023/03/25 03:06:54;;;;;;;;;25.33;24.67;;;;;11.37;92.25;99388.19;5095516;27;45392;-79
2023/03/25 03:09:42;;;;;;;;;36.67;28.67;;;;;11.41;92.98;99392.41;5094192;27;45321;-79
2023/03/25 03:12:17;;;;;;;;;14.00;10.00;;;;;11.42;91.33;99394.13;5093757;27;45452;-78
2023/03/25 03:14:58;;;;;;;;;18.25;14.75;;;;;11.38;90.72;99396.97;5094992;27;45402;-79
2023/03/25 03:17:23;;;;;;;;;15.75;13.25;;;;;11.29;90.95;99406.09;5093535;27;46939;-79
2023/03/25 03:20:31;;;;;;;;;18.00;15.75;;;;;11.21;90.51;99408.19;5110651;27;45348;-79
2023/03/25 03:23:23;;;;;;;;;21.50;17.50;;;;;11.15;91.25;99398.69;5108855;27;45434;-79
2023/03/25 03:26:16;;;;;;;;;17.25;16.50;;;;;11.13;90.28;99400.53;5093303;27;45402;-80
2023/03/25 03:28:48;;;;;;;;;19.00;17.75;;;;;11.14;91.33;99398.75;5090421;27;47459;-80
2023/03/25 03:31:23;;;;;;;;;22.00;20.00;;;;;11.17;90.56;99391.59;5082422;27;45376;-79
2023/03/25 03:34:01;;;;;;;;;16.75;13.50;;;;;11.18;88.46;99379.25;5095564;27;45358;-79
2023/03/25 03:36:34;;;;;;;;;14.25;14.00;;;;;11.17;88.64;99372.25;5094208;27;45359;-79
2023/03/25 03:39:27;;;;;;;;;15.00;13.00;;;;;11.13;88.20;99375.94;5095175;27;46591;-79
2023/03/25 03:42:03;;;;;;;;;5.50;5.50;;;;;11.12;86.99;99382.13;5094518;27;45397;-79
2023/03/25 03:44:33;;;;;;;;;9.50;9.50;;;;;11.09;86.30;99388.38;5094128;27;45434;-79
2023/03/25 03:47:25;;;;;;;;;13.75;9.00;;;;;11.07;85.98;99384.06;5094984;27;45409;-79
2023/03/25 03:50:13;;;;;;;;;7.00;6.75;;;;;11.03;86.20;99380.72;5098771;27;47097;-79
2023/03/25 03:52:46;;;;;;;;;13.00;9.00;;;;;11.03;86.08;99375.44;5083504;27;45444;-79
2023/03/25 03:55:17;;;;;;;;;7.00;7.00;;;;;11.03;86.25;99380.72;5093953;27;45378;-79
2023/03/25 03:57:58;;;;;;;;;8.75;8.75;;;;;11.02;86.59;99386.91;5094232;27;45394;-79
2023/03/25 04:00:29;;;;;;;;;9.50;9.00;;;;;11.00;86.40;99382.59;5093915;27;46225;-79
2023/03/25 04:03:05;;;;;;;;;9.25;8.25;;;;;11.00;86.08;99388.72;5099116;27;45375;-79
2023/03/25 04:05:35;;;;;;;;;9.75;9.00;;;;;11.01;86.53;99390.47;5097135;27;45426;-79
2023/03/25 04:08:13;;;;;;;;;10.50;10.50;;;;;11.01;86.96;99385.19;5096743;27;45420;-79
2023/03/25 04:11:00;;;;;;;;;12.25;9.00;;;;;11.01;87.77;99390.47;5098229;27;46292;-79
2023/03/25 04:13:35;;;;;;;;;16.50;14.25;;;;;11.00;88.33;99401.91;5084116;27;45431;-78
2023/03/25 04:16:01;;;;;;;;;9.25;9.25;;;;;10.97;87.68;99402.03;5097913;27;45548;-78
2023/03/25 04:18:27;;;;;;;;;11.75;11.75;;;;;10.95;87.59;99397.72;5098001;27;45489;-78
2023/03/25 04:20:54;;;;;;;;;13.00;13.00;;;;;10.91;87.91;99391.69;5096285;27;48214;-79
2023/03/25 04:23:20;;;;;;;;;15.75;12.00;;;;;10.89;87.82;99409.38;5096887;27;45384;-78
2023/03/25 04:25:51;;;;;;;;;16.00;11.00;;;;;10.85;87.22;99399.84;5096961;27;45478;-78
2023/03/25 04:28:18;;;;;;;;;11.00;9.00;;;;;10.81;87.04;99400.88;5105859;27;45397;-78
2023/03/25 04:30:44;;;;;;;;;11.50;10.00;;;;;10.77;87.15;99402.75;5097655;27;46424;-79
2023/03/25 04:33:10;;;;;;;;;10.75;8.00;;;;;10.72;86.90;99399.44;5093124;27;45471;-78
2023/03/25 04:35:37;;;;;;;;;8.50;8.25;;;;;10.70;86.79;99397.78;5094110;27;45300;-78
2023/03/25 04:38:04;;;;;;;;;12.75;10.50;;;;;10.67;87.57;99398.75;5097669;27;45343;-78
2023/03/25 04:40:30;;;;;;;;;9.00;8.25;;;;;10.66;87.86;99410.22;5096872;27;45539;-78
2023/03/25 04:42:56;;;;;;;;;14.75;14.75;;;;;10.63;88.57;99417.34;5096696;27;45477;-79
2023/03/25 04:45:24;;;;;;;;;12.25;10.25;;;;;10.61;89.13;99424.47;5096720;27;45452;-78
2023/03/25 04:47:52;;;;;;;;;17.25;15.50;;;;;10.59;90.39;99431.56;5095111;27;45389;-78
2023/03/25 04:50:26;;;;;;;;;10.25;8.25;;;;;10.53;90.09;99427.38;5096276;27;46558;-78
2023/03/25 04:52:52;;;;;;;;;13.75;11.25;;;;;10.48;89.97;99426.66;5096885;27;45616;-78
2023/03/25 04:55:19;;;;;;;;;10.00;10.00;;;;;10.43;89.53;99431.22;5096565;27;45557;-78
2023/03/25 04:57:46;;;;;;;;;14.00;12.25;;;;;10.38;90.30;99436.69;5096817;27;45560;-78
2023/03/25 05:00:13;;;;;;;;;11.75;11.75;;;;;10.36;89.81;99448.19;5096622;27;45522;-77
2023/03/25 05:02:44;;;;;;;;;11.75;10.25;;;;;10.34;90.20;99455.28;5092567;27;46111;-78
2023/03/25 05:05:16;;;;;;;;;16.00;13.25;;;;;10.30;90.95;99462.41;5096758;27;45438;-78
2023/03/25 05:07:44;;;;;;;;;11.50;9.75;;;;;10.30;91.23;99462.41;5096710;27;45464;-78
2023/03/25 05:10:10;;;;;;;;;7.00;6.50;;;;;10.28;91.13;99458.97;5095196;27;47237;-78
2023/03/25 05:12:35;;;;;;;;;12.00;12.00;;;;;10.26;90.97;99460.78;5091225;27;45859;-78
2023/03/25 05:15:00;;;;;;;;;12.50;11.50;;;;;10.25;91.16;99466.97;5091679;27;45433;-78
2023/03/25 05:17:28;;;;;;;;;8.75;7.25;;;;;10.27;91.14;99459.03;5089083;27;45640;-78
2023/03/25 05:19:55;;;;;;;;;8.50;8.50;;;;;10.26;90.79;99458.16;5096858;27;45448;-78
2023/03/25 05:22:21;;;;;;;;;16.00;9.75;;;;;10.27;90.74;99461.66;5112273;27;45451;-78
2023/03/25 05:24:47;;;;;;;;;9.00;7.50;;;;;10.28;90.94;99453.69;5112513;27;45427;-78
2023/03/25 05:27:12;;;;;;;;;12.50;11.00;;;;;10.31;90.81;99466.78;5095152;27;45495;-79
2023/03/25 05:29:38;;;;;;;;;11.75;11.00;;;;;10.34;90.62;99463.19;5096071;27;48095;-78
2023/03/25 05:32:03;;;;;;;;;7.50;7.50;;;;;10.33;90.61;99467.59;5092759;27;45327;-78
2023/03/25 05:34:29;;;;;;;;;12.00;10.00;;;;;10.34;90.37;99471.09;5097402;27;45466;-78
2023/03/25 05:36:55;;;;;;;;;11.25;11.25;;;;;10.31;90.43;99477.31;5096799;27;45532;-78
2023/03/25 05:39:23;;;;;;;;;8.50;7.25;;;;;10.31;90.50;99471.19;5096766;27;45486;-79
2023/03/25 05:41:49;;;;;;;;;9.00;8.75;;;;;10.30;90.13;99472.97;5112382;27;45457;-79
2023/03/25 05:44:18;;;;;;;;;8.50;8.50;;;;;10.28;90.36;99476.56;5112564;27;45495;-79
2023/03/25 05:46:43;;;;;;;;;7.75;6.00;;;;;10.25;90.51;99474.88;5099897;27;45350;-79
2023/03/25 05:49:08;;;;;;;;;2.50;2.25;;;;;10.21;90.51;99472.41;5106668;27;47418;-79
2023/03/25 05:51:37;;;;;;;;;9.25;8.00;;;;;10.18;90.20;99477.75;5112440;27;45968;-79
2023/03/25 05:54:07;;;;;;;;;8.00;8.00;;;;;10.18;90.21;99475.13;5096623;27;45380;-79
2023/03/25 05:56:33;;;;;;;;;6.50;6.50;;;;;10.15;90.04;99481.34;5096725;27;45438;-78
2023/03/25 05:59:02;;;;;;;;;6.75;6.75;;;;;10.15;88.91;99484.84;5095745;27;45500;-79
2023/03/25 06:01:28;;;;;;;;;5.00;5.00;;;;;10.19;86.99;99477.72;5095551;27;45490;-79
2023/03/25 06:03:56;;;;;;;;;5.50;5.50;;;;;10.24;87.50;99488.09;5096333;27;45316;-79
2023/03/25 06:06:24;;;;;;;;;6.50;6.00;;;;;10.28;87.80;99489.72;5096251;27;45437;-79
2023/03/25 06:08:51;;;;;;;;;8.00;7.00;;;;;10.31;87.58;99476.47;5094847;27;47217;-79
2023/03/25 06:11:18;;;;;;;;;6.00;4.25;;;;;10.34;86.83;99489.53;5096151;27;45378;-79
2023/03/25 06:13:51;;;;;;;;;5.75;5.75;;;;;10.34;86.15;99486.91;5094303;27;45430;-79
2023/03/25 06:16:19;;;;;;;;;7.25;4.75;;;;;10.33;86.25;99479.91;5094163;27;45490;-79
2023/03/25 06:18:49;;;;;;;;;7.00;6.50;;;;;10.30;86.16;99490.53;5103584;27;48196;-79
2023/03/25 06:21:17;;;;;;;;;5.00;5.00;;;;;10.28;85.95;99495.84;5095990;27;45478;-79
2023/03/25 06:23:42;;;;;;;;;9.50;6.75;;;;;10.30;86.44;99496.69;5096082;27;45418;-79
2023/03/25 06:26:07;;;;;;;;;5.50;5.50;;;;;10.30;86.31;99493.19;5095707;27;45305;-79
2023/03/25 06:28:33;;;;;;;;;7.25;5.75;;;;;10.28;86.60;99498.50;5094822;27;46539;-79
2023/03/25 06:31:02;;;;;;;;;6.50;6.00;;;;;10.29;86.01;99491.44;5111511;27;45411;-78
2023/03/25 06:33:29;;;;;;;;;4.00;4.00;;;;;10.31;86.28;99497.53;5111405;27;45604;-79
2023/03/25 06:35:55;;;;;;;;;9.25;6.00;;;;;10.30;85.66;99509.84;5095887;27;45569;-78
2023/03/25 06:38:22;;;;;;;;;6.50;6.50;;;;;10.28;86.06;99510.81;5092964;27;45689;-78
2023/03/25 06:40:47;;;;;;;;;6.00;4.75;;;;;10.25;85.40;99521.44;5089127;27;45661;-79
2023/03/25 06:43:13;;;;;;;;;7.00;6.00;;;;;10.26;85.51;99515.25;5083200;27;45748;-78
2023/03/25 06:45:38;;;;;;;;;8.75;6.00;;;;;10.29;85.67;99512.53;5109540;27;45511;-79
2023/03/25 06:48:04;;;;;;;;;5.25;4.50;;;;;10.34;85.18;99514.13;5094831;27;45361;-79
2023/03/25 06:50:30;;;;;;;;;6.25;5.00;;;;;10.41;84.91;99520.03;5093244;27;45455;-78
2023/03/25 06:52:56;;;;;;;;;5.75;5.00;;;;;10.48;84.45;99516.28;5095192;27;45314;-78
2023/03/25 06:55:21;;;;;;;;;5.75;5.75;;;;;10.56;84.20;99505.50;5091240;27;45394;-78
2023/03/25 06:57:47;;;;;;;;;5.75;4.00;;;;;10.64;83.27;99504.31;5094650;27;46198;-69
2023/03/25 07:00:12;;;;;;;;;4.25;4.25;;;;;10.73;82.92;99498.72;5094224;27;45551;-65
2023/03/25 07:02:40;;;;;;;;;3.25;3.00;;;;;10.83;82.41;99504.53;5084751;27;45491;-69
2023/03/25 07:05:06;;;;;;;;;4.50;4.50;;;;;10.96;82.37;99502.31;5082249;27;45395;-62
2023/03/25 07:07:31;;;;;;;;;4.50;4.50;;;;;11.05;81.81;99491.47;5100885;27;45513;-66
2023/03/25 07:09:57;;;;;;;;;4.25;3.00;;;;;11.16;81.24;99486.66;5094141;27;45703;-63
2023/03/25 07:12:22;;;;;;;;;4.00;4.00;;;;;11.29;81.18;99476.50;5094168;27;45512;-63
2023/03/25 07:14:52;;;;;;;;;7.00;6.00;;;;;11.43;81.12;99467.13;5089875;27;45295;-63
2023/03/25 07:17:18;;;;;;;;;5.00;5.00;;;;;11.56;80.38;99471.97;5087049;27;45461;-63
2023/03/25 07:19:44;;;;;;;;;5.25;4.00;;;;;11.69;80.12;99482.00;5093670;27;45358;-63
2023/03/25 07:22:09;;;;;;;;;8.00;8.00;;;;;11.82;80.37;99487.69;5092401;27;45408;-63
2023/03/25 07:24:35;;;;;;;;;4.00;4.00;;;;;11.89;79.59;99489.16;5092512;27;45531;-63
2023/03/25 07:27:00;;;;;;;;;6.00;6.00;;;;;11.93;79.08;99488.09;5093663;27;47858;-63
2023/03/25 07:29:25;;;;;;;;;6.00;5.75;;;;;11.99;79.40;99487.00;5093553;27;45434;-63
2023/03/25 07:31:51;;;;;;;;;4.75;4.75;;;;;12.06;78.47;99494.66;5109529;27;45375;-63
2023/03/25 07:34:16;;;;;;;;;5.75;4.00;;;;;12.08;77.68;99489.28;5092603;27;45427;-63
2023/03/25 07:36:42;;;;;;;;;6.00;5.00;;;;;12.11;77.18;99483.88;5092441;27;47248;-63
2023/03/25 07:39:07;;;;;;;;;5.50;5.50;;;;;12.19;77.05;99492.38;5095198;27;45312;-64
2023/03/25 07:41:32;;;;;;;;;5.00;4.00;;;;;12.22;76.06;99490.47;5097965;27;45851;-64
2023/03/25 07:43:58;;;;;;;;;6.50;5.75;;;;;12.22;76.14;99494.88;5096914;27;45324;-64
2023/03/25 07:46:23;;;;;;;;;4.25;4.25;;;;;12.17;76.25;99489.78;5087035;27;46728;-67
2023/03/25 07:48:50;;;;;;;;;4.00;4.00;;;;;12.13;76.21;99503.16;5088447;27;45243;-67
2023/03/25 07:51:15;;;;;;;;;5.25;5.25;;;;;12.12;76.42;99507.59;5200920;22;45438;-64
2023/03/25 07:53:43;;;;;;;;;6.75;4.50;;;;;12.11;75.98;99503.22;5092551;27;45439;-62
2023/03/25 07:56:09;;;;;;;;;6.25;3.00;;;;;12.15;75.28;99510.13;5068072;27;47252;-61
2023/03/25 08:01:54;;;;;;;;;3.25;2.50;;;;;12.28;73.40;99502.53;5030609;28;45767;-62
2023/03/25 08:04:19;;;;;;;;;4.00;2.75;;;;;12.38;73.07;99501.25;5041377;28;45552;-62
2023/03/25 08:06:45;;;;;;;;;3.25;3.25;;;;;12.51;73.07;99506.91;5032193;28;46580;-64
2023/03/25 08:09:10;;;;;;;;;2.75;2.75;;;;;12.62;72.07;99511.72;5049683;28;45700;-64
2023/03/25 08:11:36;;;;;;;;;2.25;1.50;;;;;12.71;70.71;99517.50;5051581;28;45858;-63
2023/03/25 08:14:01;;;;;;;;;3.00;2.00;;;;;12.79;70.15;99517.16;5051269;28;45591;-64
2023/03/25 08:16:26;;;;;;;;;0.25;0.00;;;;;12.83;66.48;99516.13;5049398;28;45799;-64
2023/03/25 08:18:52;;;;;;;;;4.75;2.00;;;;;12.88;67.74;99515.00;5027028;28;45600;-64
2023/03/25 08:21:26;;;;;;;;;2.00;2.00;;;;;12.92;66.45;99511.25;5043554;28;45922;-64
2023/03/25 08:24:03;;;;;;;;;3.00;2.00;;;;;13.00;67.88;99521.53;5046497;28;45499;-64
2023/03/25 08:26:30;;;;;;;;;2.00;2.00;;;;;13.08;66.76;99515.88;5044512;28;45650;-64
2023/03/25 08:28:56;;;;;;;;;3.40;2.80;;;;;13.13;67.23;99519.19;5048446;28;45534;-64
2023/03/25 08:31:29;;;;;;;;;4.60;1.80;;;;;13.17;64.75;99532.28;5051007;28;45439;-64
2023/03/25 08:33:59;;;;;;;;;1.00;1.00;;;;;13.23;65.58;99539.09;5052556;28;45502;-64
2023/03/25 08:36:24;;;;;;;;;3.75;3.00;;;;;13.25;65.79;99539.88;5050822;28;46528;-64
2023/03/25 08:38:50;;;;;;;;;2.50;2.50;;;;;13.30;66.26;99539.66;5069924;27;45428;-65
2023/03/25 08:41:16;;;;;;;;;3.00;2.00;;;;;13.35;65.46;99543.84;5094665;27;45506;-65
2023/03/25 08:43:41;;;;;;;;;4.75;4.50;;;;;13.38;66.67;99546.38;5092695;27;45395;-65
2023/03/25 08:46:08;;;;;;;;;3.00;3.00;;;;;13.40;65.27;99538.34;5095373;27;45484;-64
2023/03/25 08:48:33;;;;;;;;;3.40;3.00;;;;;13.40;66.05;99536.56;5090337;27;45510;-65
2023/03/25 08:50:59;;;;;;;;;3.00;2.00;;;;;13.42;66.06;99532.03;5094036;27;45416;-65
2023/03/25 08:53:25;;;;;;;;;2.00;2.00;;;;;13.44;64.20;99542.56;5094153;27;45463;-65
2023/03/25 08:55:55;;;;;;;;;3.50;3.50;;;;;13.47;65.56;99548.59;5095797;27;46963;-65
2023/03/25 08:58:21;;;;;;;;;4.40;2.40;;;;;13.52;65.05;99545.72;5094746;27;45525;-65
2023/03/25 09:00:54;;;;;;;;;3.40;3.40;;;;;13.58;65.12;99545.44;5090253;27;45411;-64
2023/03/25 09:03:21;;;;;;;;;3.75;2.25;;;;;13.65;65.20;99543.38;5091263;27;45493;-64
2023/03/25 09:05:47;;;;;;;;;1.60;1.60;;;;;13.72;64.19;99537.75;5089556;27;49399;-64
2023/03/25 09:08:13;;;;;;;;;3.00;3.00;;;;;13.78;63.68;99536.56;5089125;27;45585;-64
2023/03/25 09:10:38;;;;;;;;;5.00;4.75;;;;;13.86;64.33;99524.72;5071849;27;45419;-65
2023/03/25 09:13:04;;;;;;;;;5.00;3.50;;;;;13.96;64.84;99533.06;5090790;27;45449;-64
2023/03/25 09:15:30;;;;;;;;;7.00;4.00;;;;;14.04;64.72;99527.41;5090044;27;45507;-64
2023/03/25 09:17:55;;;;;;;;;3.00;3.00;;;;;14.12;64.92;99534.06;5090901;27;45474;-64
2023/03/25 09:20:21;;;;;;;;;3.75;3.75;;;;;14.13;62.89;99526.97;5095752;27;45526;-65
2023/03/25 09:22:46;;;;;;;;;3.00;2.50;;;;;14.12;61.33;99520.81;5092347;27;45356;-65
2023/03/25 09:25:12;;;;;;;;;4.00;4.00;;;;;14.19;60.70;99516.06;5094387;27;45533;-65
2023/03/25 09:27:38;;;;;;;;;4.75;3.75;;;;;14.24;61.63;99506.09;5093975;27;45597;-66
2023/03/25 09:30:05;;;;;;;;;3.00;3.00;;;;;14.28;61.07;99503.22;5090511;27;45393;-65
2023/03/25 09:32:30;;;;;;;;;2.60;2.20;;;;;14.32;62.83;99504.78;5094215;27;45831;-66
2023/03/25 09:34:56;;;;;;;;;3.00;3.00;;;;;14.41;62.55;99508.78;5094509;27;45475;-66
2023/03/25 09:37:22;;;;;;;;;6.00;4.00;;;;;14.54;63.29;99511.72;5094056;27;45443;-66
2023/03/25 09:39:47;;;;;;;;;5.25;5.00;;;;;14.58;61.52;99510.59;5088254;27;45460;-66
2023/03/25 09:42:12;;;;;;;;;3.00;3.00;;;;;14.56;60.67;99510.72;5094861;27;45434;-66
2023/03/25 09:44:57;;;;;;;;;7.25;6.50;;;;;14.58;61.44;99510.59;5089581;27;45677;-65
2023/03/25 09:47:25;;;;;;;;;4.20;4.20;;;;;14.62;61.66;99518.34;5094726;27;45438;-65
2023/03/25 09:49:56;;;;;;;;;4.00;3.00;;;;;14.69;61.64;99516.25;5070891;28;45396;-65
2023/03/25 09:52:28;;;;;;;;;6.75;5.75;;;;;14.75;61.49;99510.63;5090907;27;45411;-65
2023/03/25 09:55:01;;;;;;;;;5.20;4.60;;;;;14.82;61.61;99495.25;5089114;27;45424;-65
2023/03/25 09:57:30;;;;;;;;;4.20;3.80;;;;;14.94;60.94;99491.94;5094378;27;45427;-65
2023/03/25 10:00:00;;;;;;;;;4.20;3.00;;;;;14.95;59.39;99486.56;5083135;27;45411;-66
2023/03/25 10:02:44;;;;;;;;;6.00;4.00;;;;;14.98;59.68;99486.41;5092193;27;45415;-66
2023/03/25 10:05:31;;;;;;;;;2.80;2.80;;;;;15.02;60.22;99484.47;5082458;27;45683;-66
2023/03/25 10:08:19;;;;;;;;;3.80;2.00;;;;;15.04;58.60;99490.56;5074528;27;46283;-66
2023/03/25 10:11:11;;;;;;;;;3.60;2.80;;;;;15.00;58.40;99487.19;5086476;27;45317;-66
2023/03/25 10:13:46;;;;;;;;;5.00;4.00;;;;;14.97;58.48;99487.34;5091809;27;45372;-66
2023/03/25 10:16:15;;;;;;;;;4.75;4.00;;;;;14.99;57.34;99488.13;5075374;27;46345;-66
2023/03/25 10:19:08;;;;;;;;;3.00;2.60;;;;;14.95;56.66;99481.25;5075331;27;45530;-66
2023/03/25 10:21:56;;;;;;;;;3.00;3.00;;;;;15.00;56.71;99478.38;5094522;27;45396;-66
2023/03/25 10:24:28;;;;;;;;;3.00;2.75;;;;;15.15;57.78;99474.03;5089419;27;45587;-66
2023/03/25 10:27:05;;;;;;;;;1.40;1.40;;;;;15.31;56.72;99481.09;5093060;27;46586;-66
2023/03/25 10:29:38;;;;;;;;;2.20;2.20;;;;;15.42;54.91;99477.00;5089566;27;45471;-66
2023/03/25 10:32:15;;;;;;;;;1.60;1.60;;;;;15.51;53.15;99482.69;5093262;27;45444;-66
2023/03/25 10:34:49;;;;;;;;;1.20;1.20;;;;;15.55;52.57;99488.72;5092098;27;45313;-66
2023/03/25 10:37:20;;;;;;;;;0.20;0.00;;;;;15.57;53.62;99486.88;5090399;27;46957;-67
2023/03/25 10:39:48;;;;;;;;;1.80;0.60;;;;;15.67;54.60;99496.91;5092488;27;45398;-66
2023/03/25 10:42:27;;;;;;;;;1.20;0.60;;;;;15.73;53.81;99490.41;5092888;27;45370;-67
2023/03/25 10:44:53;;;;;;;;;0.60;0.60;;;;;15.74;51.60;99486.78;5088027;27;45402;-67
2023/03/25 10:47:24;;;;;;;;;0.00;0.00;;;;;15.74;49.68;99485.94;5091803;27;45715;-67
2023/03/25 10:49:51;;;;;;;;;1.00;0.00;;;;;15.73;49.19;99481.56;5089847;27;45408;-67
2023/03/25 10:52:17;;;;;;;;;0.60;0.00;;;;;15.65;47.03;99474.00;5093696;27;45546;-67
2023/03/25 10:54:52;;;;;;;;;0.20;0.20;;;;;15.64;49.69;99467.81;5072442;27;45496;-67
2023/03/25 10:57:26;;;;;;;;;0.40;0.40;;;;;15.70;48.86;99472.81;5074034;27;45590;-66
2023/03/25 11:00:18;;;;;;;;;0.60;0.60;;;;;15.74;51.63;99477.97;5089270;27;45499;-66
2023/03/25 11:02:44;;;;;;;;;1.00;1.00;;;;;15.77;50.78;99472.44;5092200;27;45408;-67
2023/03/25 11:05:15;;;;;;;;;1.20;1.20;;;;;15.75;49.40;99461.06;5088594;27;45622;-66
2023/03/25 11:07:45;;;;;;;;;2.20;1.20;;;;;15.81;47.56;99450.06;5087961;27;45461;-67
2023/03/25 11:10:27;;;;;;;;;0.00;0.00;;;;;15.85;50.03;99455.13;5082841;27;45711;-68
2023/03/25 11:12:55;;;;;;;;;1.40;1.40;;;;;15.94;49.70;99464.38;5088898;27;45375;-67
2023/03/25 11:15:22;;;;;;;;;3.20;1.00;;;;;15.99;48.77;99467.66;5085983;27;45353;-67
2023/03/25 11:18:01;;;;;;;;;0.80;0.80;;;;;16.01;50.08;99458.66;5091519;27;45518;-67
2023/03/25 11:20:36;;;;;;;;;2.00;0.80;;;;;15.96;48.56;99439.44;5092179;27;45352;-67
2023/03/25 11:23:13;;;;;;;;;2.60;1.20;;;;;15.97;49.38;99429.66;5091331;27;45363;-67
2023/03/25 11:25:40;;;;;;;;;2.00;1.40;;;;;16.02;50.31;99439.09;5089642;27;45430;-67
2023/03/25 11:28:20;;;;;;;;;0.00;0.00;;;;;16.01;48.92;99436.50;5092844;27;45626;-67
2023/03/25 11:31:05;;;;;;;;;2.80;1.80;;;;;16.01;47.85;99433.84;5089933;27;45478;-67
2023/03/25 11:33:31;;;;;;;;;2.20;1.00;;;;;15.98;46.26;99429.56;5093585;27;45414;-67
2023/03/25 11:36:10;;;;;;;;;0.40;0.40;;;;;15.98;46.05;99420.72;5093642;27;45604;-67
2023/03/25 11:38:37;;;;;;;;;1.40;1.40;;;;;16.01;47.79;99416.09;5091492;27;45672;-67
2023/03/25 11:41:03;;;;;;;;;0.80;0.80;;;;;16.09;47.45;99414.81;5088116;27;45407;-67
2023/03/25 11:43:39;;;;;;;;;0.00;0.00;;;;;16.21;47.67;99409.63;5092669;27;45292;-67